CheckWX is a tool to help pilots better visualize weather data.  It is not intended as a substitute for an official pre-flight weather briefing.

00:38:23 UTC

KPVC METAR
Provincetown Municipal Airport
Provincetown, Massachusetts, USA
Current

42 mins ago

KPVC 172356Z AUTO 07015G21KT 10SM OVC029 06/01 A3022 RMK AO2 SLP233 T00610006 10061 20056 58022
Observed
Nov-17 @ 23:56 UTC
Wind
  • 070° at 15 KTS
  • Gusting to 21 KTS
Visibility
10 SM
Flight Rules
MVFR
Cloud Levels
  • Overcast at 2,900' AGL
Temperature
C / 43°F
Dewpoint
C / 34°F
Humidity
71%
Altimeter
30.22" Hg
Pressure
1023.42 hPa
Previous

2 hours ago

KPVC 172256Z AUTO 08013G18KT 10SM OVC029 06/M01 A3025 RMK AO2 SLP242 T00561006
Observed
Nov-17 @ 22:56 UTC
Wind
  • 080° at 13 KTS
  • Gusting to 18 KTS
Visibility
10 SM
Flight Rules
MVFR
Cloud Levels
  • Overcast at 2,900' AGL
Temperature
C / 43°F
Dewpoint
-1°C / 30°F
Humidity
61%
Altimeter
30.25" Hg
Pressure
1024.42 hPa
Previous

2 hours ago

KPVC 172239Z AUTO 07016G20KT 10SM OVC029 06/00 A3026 RMK AO2
Observed
Nov-17 @ 22:39 UTC
Wind
  • 070° at 16 KTS
  • Gusting to 20 KTS
Visibility
10 SM
Flight Rules
MVFR
Cloud Levels
  • Overcast at 2,900' AGL
Temperature
C / 43°F
Dewpoint
C / 32°F
Humidity
66%
Altimeter
30.26" Hg
Pressure
1024.72 hPa